createdAt,value
2023-12-15T00:00:39.387Z,26.90
2023-12-15T00:03:22.846Z,30.70
2023-12-15T00:05:30.991Z,29.00
2023-12-15T00:07:39.549Z,28.80
2023-12-15T00:09:47.971Z,28.50
2023-12-15T00:11:55.961Z,23.30
2023-12-15T00:14:04.041Z,24.70
2023-12-15T00:16:12.366Z,22.20
2023-12-15T00:18:20.497Z,22.50
2023-12-15T00:20:28.706Z,18.80
2023-12-15T00:22:36.782Z,23.50
2023-12-15T00:24:45.138Z,28.30
2023-12-15T00:26:53.143Z,28.60
2023-12-15T00:29:01.192Z,31.10
2023-12-15T00:31:09.605Z,33.50
2023-12-15T00:33:17.711Z,29.00
2023-12-15T00:35:25.855Z,27.80
2023-12-15T00:37:34.119Z,26.90
2023-12-15T00:39:42.257Z,29.00
2023-12-15T00:41:50.484Z,24.70
2023-12-15T00:43:58.471Z,32.80
2023-12-15T00:46:07.138Z,26.80
2023-12-15T00:48:15.265Z,25.40
2023-12-15T00:50:23.656Z,29.70
2023-12-15T00:52:31.692Z,26.00
2023-12-15T00:54:39.705Z,29.40
2023-12-15T00:56:47.686Z,29.70
2023-12-15T00:58:55.682Z,30.30
2023-12-15T01:01:03.775Z,29.80
2023-12-15T01:03:11.803Z,23.90
2023-12-15T01:05:20.091Z,26.30
2023-12-15T01:07:32.092Z,25.90
2023-12-15T01:09:40.089Z,29.20
2023-12-15T01:11:48.105Z,27.20
2023-12-15T01:13:56.228Z,26.30
2023-12-15T01:16:08.102Z,25.00
2023-12-15T01:18:16.269Z,39.30
2023-12-15T01:20:24.475Z,37.70
2023-12-15T01:22:32.470Z,41.20
2023-12-15T01:24:40.617Z,39.40
2023-12-15T01:26:48.641Z,37.60
2023-12-15T01:28:56.679Z,34.20
2023-12-15T01:31:04.998Z,29.40
2023-12-15T01:33:13.562Z,25.40
2023-12-15T01:35:21.665Z,22.60
2023-12-15T01:37:29.696Z,28.50
2023-12-15T01:39:37.742Z,26.90
2023-12-15T01:41:45.731Z,28.90
2023-12-15T01:43:53.985Z,25.70
2023-12-15T01:46:08.979Z,29.70
2023-12-15T01:48:23.809Z,29.90
2023-12-15T01:50:32.002Z,27.10
2023-12-15T01:52:40.053Z,29.80
2023-12-15T01:54:48.076Z,26.20
2023-12-15T01:56:56.098Z,25.10
2023-12-15T01:59:04.335Z,25.80
2023-12-15T02:01:13.416Z,20.70
2023-12-15T02:03:21.468Z,21.30
2023-12-15T02:05:29.640Z,18.10
2023-12-15T02:07:37.912Z,17.20
2023-12-15T02:09:46.130Z,18.70
2023-12-15T02:11:54.172Z,18.40
2023-12-15T02:14:02.165Z,22.20
2023-12-15T02:16:11.948Z,17.90
2023-12-15T02:18:20.626Z,19.80
2023-12-15T02:20:28.772Z,15.70
2023-12-15T02:22:36.832Z,15.80
2023-12-15T02:24:44.827Z,17.50
2023-12-15T02:26:52.881Z,15.20
2023-12-15T02:29:00.967Z,15.70
2023-12-15T02:31:09.483Z,16.90
2023-12-15T02:33:17.681Z,17.00
2023-12-15T02:35:25.840Z,13.10
2023-12-15T02:37:34.133Z,15.30
2023-12-15T02:39:43.065Z,15.20
2023-12-15T02:41:51.261Z,14.10
2023-12-15T02:43:59.279Z,18.50
2023-12-15T02:46:08.522Z,16.70
2023-12-15T02:48:18.401Z,16.00
2023-12-15T02:50:26.766Z,13.90
2023-12-15T02:52:34.905Z,14.50
2023-12-15T02:54:43.140Z,15.90
2023-12-15T02:56:51.268Z,12.60
2023-12-15T02:58:59.377Z,14.70
2023-12-15T03:01:08.048Z,15.90
2023-12-15T03:03:16.566Z,13.00
2023-12-15T03:05:25.225Z,15.30
2023-12-15T03:07:33.326Z,13.40
2023-12-15T03:09:41.620Z,13.40
2023-12-15T03:11:49.841Z,15.10
2023-12-15T03:13:57.975Z,15.60
2023-12-15T03:16:09.369Z,13.50
2023-12-15T03:18:17.497Z,14.40
2023-12-15T03:20:25.842Z,14.20
2023-12-15T03:22:34.342Z,16.10
2023-12-15T03:24:42.465Z,14.30
2023-12-15T03:26:50.580Z,16.90
2023-12-15T03:28:58.915Z,12.70
2023-12-15T03:31:08.053Z,15.00
2023-12-15T03:33:16.232Z,15.80
2023-12-15T03:35:24.461Z,14.50
2023-12-15T03:37:32.517Z,15.10
2023-12-15T03:39:40.534Z,15.70
2023-12-15T03:41:48.653Z,14.00
2023-12-15T03:43:56.841Z,16.00
2023-12-15T03:46:05.343Z,13.70
2023-12-15T03:48:13.436Z,16.20
2023-12-15T03:50:22.000Z,16.80
2023-12-15T03:52:30.315Z,14.80
2023-12-15T03:54:38.413Z,13.00
2023-12-15T03:56:46.736Z,14.30
2023-12-15T03:58:55.099Z,12.80
2023-12-15T04:01:03.258Z,16.40
2023-12-15T04:03:11.576Z,13.50
2023-12-15T04:05:22.480Z,14.70
2023-12-15T04:07:30.628Z,14.40
2023-12-15T04:09:38.739Z,14.80
2023-12-15T04:11:47.766Z,13.80
2023-12-15T04:13:55.823Z,11.30
2023-12-15T04:16:05.319Z,11.00
2023-12-15T04:18:14.347Z,13.40
2023-12-15T04:20:22.736Z,12.10
2023-12-15T04:22:30.739Z,13.20
2023-12-15T04:24:38.809Z,14.30
2023-12-15T04:26:46.905Z,13.00
2023-12-15T04:28:54.972Z,12.50
2023-12-15T04:31:03.023Z,12.30
2023-12-15T04:33:11.686Z,14.50
2023-12-15T04:35:20.577Z,15.10
2023-12-15T04:37:29.160Z,14.10
2023-12-15T04:39:37.664Z,15.60
2023-12-15T04:41:45.641Z,13.20
2023-12-15T04:43:54.086Z,19.30
2023-12-15T04:46:02.302Z,15.50
2023-12-15T04:48:10.548Z,17.40
2023-12-15T04:50:18.730Z,17.00
2023-12-15T04:52:26.741Z,17.90
2023-12-15T04:54:34.742Z,16.90
2023-12-15T04:56:42.750Z,17.40
2023-12-15T04:58:50.988Z,13.90
2023-12-15T05:00:58.986Z,14.70
2023-12-15T05:03:07.254Z,17.40
2023-12-15T05:05:16.127Z,17.00
2023-12-15T05:07:24.367Z,19.50
2023-12-15T05:09:32.496Z,24.60
2023-12-15T05:11:40.661Z,29.00
2023-12-15T05:13:49.761Z,26.60
2023-12-15T05:15:57.872Z,27.80
2023-12-15T05:18:06.691Z,28.20
2023-12-15T05:20:15.915Z,25.90
2023-12-15T05:22:24.078Z,22.90
2023-12-15T05:24:34.960Z,21.10
2023-12-15T05:26:43.047Z,17.80
2023-12-15T05:28:51.207Z,15.90
2023-12-15T05:30:59.696Z,17.80
2023-12-15T05:33:08.562Z,16.90
2023-12-15T05:35:17.342Z,16.10
2023-12-15T05:37:25.374Z,16.90
2023-12-15T05:39:33.484Z,16.30
2023-12-15T05:41:46.347Z,13.10
2023-12-15T05:43:54.424Z,14.60
2023-12-15T05:46:03.606Z,14.30
2023-12-15T05:48:12.194Z,16.10
2023-12-15T05:50:20.602Z,16.10
2023-12-15T05:52:28.821Z,16.50
2023-12-15T05:54:36.849Z,18.40
2023-12-15T05:56:44.928Z,15.00
2023-12-15T05:58:53.255Z,17.40
2023-12-15T06:01:01.341Z,17.50
2023-12-15T06:03:09.394Z,14.50
2023-12-15T06:05:18.012Z,18.10
2023-12-15T06:07:26.092Z,17.60
2023-12-15T06:09:37.544Z,16.40
2023-12-15T06:11:46.416Z,16.40
2023-12-15T06:13:54.516Z,16.60
2023-12-15T06:16:02.600Z,17.90
2023-12-15T06:18:10.713Z,17.00
2023-12-15T06:20:19.143Z,17.00
2023-12-15T06:22:27.268Z,18.90
2023-12-15T06:24:35.344Z,16.70
2023-12-15T06:26:43.466Z,19.10
2023-12-15T06:28:52.505Z,19.60
2023-12-15T06:31:00.555Z,17.60
2023-12-15T06:33:08.863Z,17.20
2023-12-15T06:35:19.348Z,17.20
2023-12-15T06:37:27.381Z,19.70
2023-12-15T06:39:35.397Z,16.10
2023-12-15T06:41:43.473Z,16.40
2023-12-15T06:43:51.527Z,16.60
2023-12-15T06:45:59.553Z,16.80
2023-12-15T06:48:08.250Z,16.10
2023-12-15T06:50:16.477Z,21.00
2023-12-15T06:52:24.740Z,16.80
2023-12-15T06:54:32.813Z,16.60
2023-12-15T06:56:42.587Z,16.40
2023-12-15T06:58:50.620Z,16.40
2023-12-15T07:00:58.699Z,17.80
2023-12-15T07:03:06.813Z,19.50
2023-12-15T07:05:15.116Z,16.70
2023-12-15T07:07:23.179Z,17.10
2023-12-15T07:09:31.176Z,16.00
2023-12-15T07:11:40.880Z,18.90
2023-12-15T07:13:49.327Z,17.50
2023-12-15T07:15:57.301Z,17.40
2023-12-15T07:18:05.590Z,17.40
2023-12-15T07:20:14.305Z,17.10
2023-12-15T07:22:22.324Z,15.60
2023-12-15T07:24:30.411Z,16.10
2023-12-15T07:26:39.386Z,16.50
2023-12-15T07:28:47.380Z,13.80
2023-12-15T07:30:55.490Z,17.10
2023-12-15T07:33:03.752Z,16.70
2023-12-15T07:35:20.846Z,12.50
2023-12-15T07:37:37.603Z,15.60
2023-12-15T07:39:46.472Z,15.80
2023-12-15T07:41:54.879Z,18.50
2023-12-15T07:44:02.973Z,17.20
2023-12-15T07:46:19.496Z,13.80
2023-12-15T07:48:28.403Z,13.00
2023-12-15T07:50:36.910Z,14.30
2023-12-15T07:52:44.945Z,14.50
2023-12-15T07:54:52.938Z,13.90
2023-12-15T07:57:01.506Z,16.00
2023-12-15T07:59:09.943Z,14.40
2023-12-15T08:01:18.237Z,14.80
2023-12-15T08:03:26.265Z,14.30
2023-12-15T08:05:34.742Z,13.90
2023-12-15T08:07:43.856Z,15.40
2023-12-15T08:09:51.859Z,13.80
2023-12-15T08:11:59.880Z,13.60
2023-12-15T08:14:07.881Z,17.00
2023-12-15T08:16:15.989Z,14.00
2023-12-15T08:18:24.071Z,16.80
2023-12-15T08:20:32.523Z,19.10
2023-12-15T08:22:40.563Z,17.20
2023-12-15T08:24:48.714Z,16.60
2023-12-15T08:26:58.891Z,14.10
2023-12-15T08:29:06.942Z,16.40
2023-12-15T08:31:14.983Z,18.30
2023-12-15T08:33:23.037Z,17.30
2023-12-15T08:35:31.408Z,18.90
2023-12-15T08:37:39.685Z,18.20
2023-12-15T08:39:47.982Z,18.40
2023-12-15T08:41:56.001Z,23.90
2023-12-15T08:44:04.523Z,25.50
2023-12-15T08:46:12.825Z,26.50
2023-12-15T08:48:21.119Z,23.70
2023-12-15T08:50:29.445Z,28.60
2023-12-15T08:52:37.558Z,26.50
2023-12-15T08:54:45.541Z,23.50
2023-12-15T08:56:53.702Z,17.00
2023-12-15T08:59:01.799Z,15.10
2023-12-15T09:01:10.002Z,13.40
2023-12-15T09:03:18.761Z,12.80
2023-12-15T09:05:47.533Z,12.00
2023-12-15T09:07:56.012Z,15.00
2023-12-15T09:10:04.409Z,14.10
2023-12-15T09:12:12.834Z,13.80
2023-12-15T09:14:22.913Z,12.60
2023-12-15T09:16:31.221Z,15.60
2023-12-15T09:18:39.289Z,11.70
2023-12-15T09:20:47.354Z,14.80
2023-12-15T09:22:55.530Z,11.90
2023-12-15T09:25:04.280Z,14.40
2023-12-15T09:27:12.319Z,13.30
2023-12-15T09:29:20.533Z,14.60
2023-12-15T09:31:28.720Z,23.60
2023-12-15T09:33:37.062Z,20.10
2023-12-15T09:35:45.118Z,13.60
2023-12-15T09:37:53.753Z,16.60
2023-12-15T09:40:01.789Z,15.40
2023-12-15T09:42:10.241Z,13.50
2023-12-15T09:44:18.502Z,12.60
2023-12-15T09:46:27.363Z,15.10
2023-12-15T09:48:35.878Z,15.80
2023-12-15T09:50:52.143Z,13.70
2023-12-15T09:53:00.741Z,12.10
2023-12-15T09:55:10.111Z,14.10
2023-12-15T09:57:19.629Z,17.00
2023-12-15T09:59:27.768Z,14.30
2023-12-15T10:01:35.830Z,14.10
2023-12-15T10:03:43.922Z,12.50
2023-12-15T10:05:52.243Z,15.50
2023-12-15T10:08:00.337Z,14.20
2023-12-15T10:10:09.298Z,13.90
2023-12-15T10:12:17.326Z,16.80
2023-12-15T10:14:26.069Z,16.80
2023-12-15T10:16:34.201Z,14.50
2023-12-15T10:18:46.727Z,15.70
2023-12-15T10:20:57.619Z,16.60
2023-12-15T10:23:07.637Z,16.50
2023-12-15T10:25:24.955Z,17.20
2023-12-15T10:27:33.051Z,15.90
2023-12-15T10:29:42.489Z,20.50
2023-12-15T10:31:52.529Z,16.80
2023-12-15T10:34:04.073Z,20.20
2023-12-15T10:36:16.942Z,17.40
2023-12-15T10:38:24.951Z,16.30
2023-12-15T10:40:33.180Z,19.80
2023-12-15T10:42:42.549Z,16.00
2023-12-15T10:44:50.901Z,16.50
2023-12-15T10:47:00.272Z,16.00
2023-12-15T10:49:09.354Z,14.90
2023-12-15T10:51:17.657Z,16.20
2023-12-15T10:53:26.948Z,14.90
2023-12-15T10:55:36.309Z,16.30
2023-12-15T10:57:44.783Z,18.60
2023-12-15T10:59:53.193Z,14.30
2023-12-15T11:02:01.337Z,13.80
2023-12-15T11:04:22.701Z,12.80
2023-12-15T11:06:33.479Z,17.10
2023-12-15T11:08:42.411Z,13.10
2023-12-15T11:10:52.781Z,14.10
2023-12-15T11:13:01.591Z,14.00
2023-12-15T11:15:11.952Z,14.20
2023-12-15T11:17:20.016Z,15.50
2023-12-15T11:19:29.737Z,13.00
2023-12-15T11:21:40.416Z,17.30
2023-12-15T11:23:58.002Z,13.10
2023-12-15T11:26:06.691Z,14.10
2023-12-15T11:28:17.814Z,13.10
2023-12-15T11:30:36.288Z,14.40
2023-12-15T11:32:45.042Z,15.60
2023-12-15T11:34:53.678Z,17.00
2023-12-15T11:37:01.970Z,14.30
2023-12-15T11:39:13.829Z,17.60
2023-12-15T11:41:24.544Z,15.30
2023-12-15T11:43:35.014Z,15.30
2023-12-15T11:45:43.073Z,15.00
2023-12-15T11:47:51.236Z,14.50
2023-12-15T11:50:00.559Z,16.10
2023-12-15T11:52:11.440Z,17.00
2023-12-15T11:54:20.176Z,16.00
2023-12-15T11:56:29.295Z,13.70
2023-12-15T11:58:37.669Z,14.90
2023-12-15T12:00:45.837Z,17.60
2023-12-15T12:02:53.887Z,17.50
2023-12-15T12:05:02.001Z,20.40
2023-12-15T12:07:12.924Z,23.00
2023-12-15T12:09:21.030Z,22.60
2023-12-15T12:11:29.068Z,24.70
2023-12-15T12:13:40.636Z,25.80
2023-12-15T12:15:57.365Z,19.50
2023-12-15T12:18:05.546Z,19.60
2023-12-15T12:20:14.936Z,20.70
2023-12-15T12:22:22.986Z,18.60
2023-12-15T12:24:31.031Z,15.60
2023-12-15T12:26:39.587Z,19.70
2023-12-15T12:28:50.629Z,17.40
2023-12-15T12:30:59.883Z,16.70
2023-12-15T12:33:08.160Z,18.40
2023-12-15T12:35:16.493Z,16.50
2023-12-15T12:37:24.505Z,14.20
2023-12-15T12:39:32.493Z,18.20
2023-12-15T12:41:41.005Z,15.20
2023-12-15T12:43:48.984Z,16.20
2023-12-15T12:45:56.984Z,16.10
2023-12-15T12:48:05.782Z,18.30
2023-12-15T12:50:14.605Z,17.00
2023-12-15T12:52:22.854Z,17.40
2023-12-15T12:54:30.849Z,18.60
2023-12-15T12:56:50.451Z,22.10
2023-12-15T12:59:06.224Z,20.70
2023-12-15T13:01:14.512Z,22.10
2023-12-15T13:03:22.724Z,22.50
2023-12-15T13:05:30.937Z,21.40
2023-12-15T13:07:38.998Z,24.70
2023-12-15T13:09:47.147Z,25.80
2023-12-15T13:11:55.160Z,20.70
2023-12-15T13:14:05.263Z,20.80
2023-12-15T13:16:16.075Z,26.70
2023-12-15T13:18:24.221Z,30.30
2023-12-15T13:20:32.516Z,19.60
2023-12-15T13:22:45.739Z,22.90
2023-12-15T13:24:59.841Z,22.60
2023-12-15T13:27:08.850Z,20.40
2023-12-15T13:29:16.876Z,21.00
2023-12-15T13:31:25.088Z,18.80
2023-12-15T13:33:33.544Z,23.20
2023-12-15T13:35:42.178Z,22.90
2023-12-15T13:37:50.236Z,24.50
2023-12-15T13:39:59.647Z,18.40
2023-12-15T13:42:08.349Z,24.60
2023-12-15T13:44:16.543Z,22.90
2023-12-15T13:46:24.661Z,24.60
2023-12-15T13:48:32.910Z,25.30
2023-12-15T13:50:41.004Z,22.90
2023-12-15T13:52:49.094Z,25.30
2023-12-15T13:54:57.909Z,27.70
2023-12-15T13:57:06.717Z,26.10
2023-12-15T13:59:14.803Z,25.30
2023-12-15T14:01:23.193Z,30.80
2023-12-15T14:03:31.761Z,25.80
2023-12-15T14:05:40.281Z,31.50
2023-12-15T14:07:48.619Z,26.70
2023-12-15T14:09:56.623Z,24.20
2023-12-15T14:12:05.577Z,29.00
2023-12-15T14:14:13.580Z,19.80
2023-12-15T14:16:28.113Z,21.60
2023-12-15T14:18:43.325Z,25.20
2023-12-15T14:20:52.449Z,23.60
2023-12-15T14:23:00.407Z,19.50
2023-12-15T14:25:10.776Z,19.00
2023-12-15T14:27:19.031Z,23.70
2023-12-15T14:29:27.644Z,26.00
2023-12-15T14:31:35.922Z,24.10
2023-12-15T14:33:44.396Z,25.70
2023-12-15T14:35:52.583Z,26.20
2023-12-15T14:38:00.692Z,33.60
2023-12-15T14:40:13.607Z,31.20
2023-12-15T14:42:21.666Z,34.30
2023-12-15T14:44:29.681Z,26.60
2023-12-15T14:46:38.012Z,38.80
2023-12-15T14:48:46.177Z,29.80
2023-12-15T14:50:54.669Z,31.70
2023-12-15T14:53:02.678Z,30.40
2023-12-15T14:55:11.486Z,28.00
2023-12-15T14:57:19.510Z,32.60
2023-12-15T14:59:27.606Z,33.20
2023-12-15T15:01:35.747Z,23.20
2023-12-15T15:03:48.877Z,37.50
2023-12-15T15:05:57.650Z,41.10
2023-12-15T15:08:06.006Z,53.00
2023-12-15T15:10:14.750Z,56.30
2023-12-15T15:12:22.920Z,38.70
2023-12-15T15:14:31.094Z,39.60
2023-12-15T15:16:39.325Z,45.80
2023-12-15T15:18:47.380Z,34.70
2023-12-15T15:20:55.438Z,27.20
2023-12-15T15:23:03.473Z,28.00
2023-12-15T15:25:12.243Z,25.80
2023-12-15T15:27:20.212Z,27.90
2023-12-15T15:29:28.279Z,27.60
2023-12-15T15:31:36.333Z,24.10
2023-12-15T15:33:44.447Z,32.00
2023-12-15T15:35:52.547Z,52.10
2023-12-15T15:38:00.557Z,42.50
2023-12-15T15:40:12.332Z,36.20
2023-12-15T15:42:20.744Z,34.40
2023-12-15T15:44:30.348Z,27.60
2023-12-15T15:46:38.356Z,27.20
2023-12-15T15:48:46.488Z,24.40
2023-12-15T15:50:54.450Z,32.10
2023-12-15T15:53:03.938Z,32.30
2023-12-15T15:55:16.478Z,26.80
2023-12-15T15:57:24.504Z,28.80
2023-12-15T15:59:32.480Z,26.50
2023-12-15T16:01:43.644Z,30.40
2023-12-15T16:03:52.897Z,26.90
2023-12-15T16:06:00.962Z,24.70
2023-12-15T16:08:09.011Z,26.90
2023-12-15T16:10:17.466Z,23.20
2023-12-15T16:12:25.765Z,43.10
2023-12-15T16:14:34.103Z,28.90
2023-12-15T16:16:42.234Z,34.80
2023-12-15T16:18:50.723Z,31.20
2023-12-15T16:20:58.812Z,25.30
2023-12-15T16:23:06.967Z,32.30
2023-12-15T16:25:15.089Z,33.90
2023-12-15T16:27:23.127Z,32.60
2023-12-15T16:29:31.092Z,28.20
2023-12-15T16:31:39.534Z,39.20
2023-12-15T16:33:47.747Z,36.20
2023-12-15T16:35:55.908Z,45.20
2023-12-15T16:38:05.714Z,40.90
2023-12-15T16:40:15.086Z,32.60
2023-12-15T16:42:23.281Z,28.50
2023-12-15T16:44:31.318Z,31.20
2023-12-15T16:46:39.315Z,34.50
2023-12-15T16:48:53.485Z,34.20
2023-12-15T16:51:02.029Z,30.50
2023-12-15T16:53:10.136Z,39.00
2023-12-15T16:55:18.229Z,33.60
2023-12-15T16:57:26.262Z,34.90
2023-12-15T16:59:34.499Z,48.00
2023-12-15T17:01:42.701Z,40.90
2023-12-15T17:03:50.921Z,30.20
2023-12-15T17:05:59.477Z,35.20
2023-12-15T17:08:08.988Z,32.10
2023-12-15T17:10:17.306Z,34.50
2023-12-15T17:12:25.479Z,47.40
2023-12-15T17:14:33.599Z,37.10
2023-12-15T17:16:42.016Z,37.80
2023-12-15T17:18:51.696Z,35.40
2023-12-15T17:20:59.915Z,34.30
2023-12-15T17:23:08.240Z,72.70
2023-12-15T17:25:16.771Z,43.50
2023-12-15T17:27:25.920Z,52.60
2023-12-15T17:29:43.590Z,77.50
2023-12-15T17:31:55.362Z,43.70
2023-12-15T17:34:04.490Z,38.00
2023-12-15T17:36:13.336Z,37.20
2023-12-15T17:38:21.560Z,38.90
2023-12-15T17:40:29.665Z,30.60
2023-12-15T17:42:37.714Z,32.30
2023-12-15T17:44:45.830Z,35.70
2023-12-15T17:46:53.945Z,35.70
2023-12-15T17:49:02.584Z,41.90
2023-12-15T17:51:11.452Z,37.40
2023-12-15T17:53:19.948Z,43.80
2023-12-15T17:55:28.108Z,67.00
2023-12-15T17:57:36.620Z,80.50
2023-12-15T17:59:44.923Z,138.50
2023-12-15T18:01:53.360Z,85.10
2023-12-15T18:04:01.840Z,54.60
2023-12-15T18:06:11.714Z,48.10
2023-12-15T18:08:19.878Z,46.80
2023-12-15T18:10:28.196Z,34.50
2023-12-15T18:12:36.347Z,32.10
2023-12-15T18:14:45.913Z,45.90
2023-12-15T18:16:54.089Z,50.30
2023-12-15T18:19:02.152Z,55.50
2023-12-15T18:21:10.279Z,57.10
2023-12-15T18:23:18.710Z,48.40
2023-12-15T18:25:27.613Z,53.20
2023-12-15T18:27:38.458Z,43.90
2023-12-15T18:30:22.946Z,49.00
2023-12-15T18:32:31.147Z,49.50
2023-12-15T18:34:39.488Z,38.40
2023-12-15T18:36:47.669Z,39.00
2023-12-15T18:38:56.098Z,38.80
2023-12-15T18:41:04.319Z,47.40
2023-12-15T18:43:12.476Z,41.90
2023-12-15T18:45:20.580Z,40.10
2023-12-15T18:47:28.622Z,45.30
2023-12-15T18:49:36.766Z,38.80
2023-12-15T18:51:45.213Z,31.30
2023-12-15T18:53:59.778Z,36.40
2023-12-15T18:56:16.750Z,34.80
2023-12-15T18:58:24.745Z,33.10
2023-12-15T19:01:45.920Z,30.60
2023-12-15T19:03:54.073Z,34.00
2023-12-15T19:06:02.076Z,33.70
2023-12-15T19:08:10.126Z,32.80
2023-12-15T19:10:18.720Z,35.80
2023-12-15T19:12:28.110Z,33.10
2023-12-15T19:14:36.476Z,33.50
2023-12-15T19:16:44.443Z,33.20
2023-12-15T19:18:53.661Z,33.20
2023-12-15T19:21:01.875Z,31.40
2023-12-15T19:23:09.916Z,33.60
2023-12-15T19:25:18.582Z,35.60
2023-12-15T19:27:27.199Z,32.20
2023-12-15T19:29:35.234Z,37.30
2023-12-15T19:31:43.789Z,37.40
2023-12-15T19:33:53.278Z,32.70
2023-12-15T19:36:01.350Z,31.00
2023-12-15T19:38:09.433Z,32.30
2023-12-15T19:40:17.889Z,30.50
2023-12-15T19:42:25.882Z,32.40
2023-12-15T19:44:33.847Z,29.70
2023-12-15T19:46:41.905Z,28.80
2023-12-15T19:48:50.062Z,28.20
2023-12-15T19:50:58.220Z,31.80
2023-12-15T19:53:06.446Z,27.20
2023-12-15T19:55:15.394Z,30.40
2023-12-15T19:57:23.831Z,27.00
2023-12-15T19:59:31.955Z,29.20
2023-12-15T20:01:41.218Z,30.60
2023-12-15T20:03:49.485Z,31.60
2023-12-15T20:05:57.606Z,28.90
2023-12-15T20:08:05.872Z,25.40
2023-12-15T20:10:14.442Z,24.00
2023-12-15T20:12:22.430Z,28.80
2023-12-15T20:14:30.389Z,28.70
2023-12-15T20:16:38.872Z,33.30
2023-12-15T20:18:48.105Z,25.30
2023-12-15T20:20:56.316Z,26.10
2023-12-15T20:23:04.371Z,27.50
2023-12-15T20:25:12.761Z,26.50
2023-12-15T20:27:20.833Z,32.00
2023-12-15T20:29:28.809Z,25.60
2023-12-15T20:31:36.975Z,25.90
2023-12-15T20:33:45.381Z,23.70
2023-12-15T20:35:53.512Z,27.90
2023-12-15T20:38:01.959Z,21.70
2023-12-15T20:40:14.065Z,25.70
2023-12-15T20:42:22.526Z,24.60
2023-12-15T20:44:30.527Z,24.30
2023-12-15T20:46:38.492Z,26.70
2023-12-15T20:48:46.993Z,24.90
2023-12-15T20:50:56.949Z,26.20
2023-12-15T20:53:05.011Z,27.70
2023-12-15T20:55:14.535Z,22.90
2023-12-15T20:57:22.651Z,25.90
2023-12-15T20:59:30.643Z,24.10
2023-12-15T21:01:39.023Z,23.10
2023-12-15T21:03:47.120Z,23.20
2023-12-15T21:05:55.307Z,22.60
2023-12-15T21:08:03.945Z,21.20
2023-12-15T21:10:12.700Z,26.00
2023-12-15T21:12:20.732Z,25.20
2023-12-15T21:14:28.740Z,25.10
2023-12-15T21:16:39.136Z,55.50
2023-12-15T21:18:47.178Z,48.10
2023-12-15T21:20:55.367Z,36.90
2023-12-15T21:23:03.404Z,30.30
2023-12-15T21:25:12.074Z,26.40
2023-12-15T21:27:20.230Z,24.90
2023-12-15T21:29:29.328Z,25.50
2023-12-15T21:31:37.420Z,27.90
2023-12-15T21:33:45.572Z,33.20
2023-12-15T21:35:56.546Z,29.30
2023-12-15T21:38:05.796Z,33.40
2023-12-15T21:40:14.740Z,41.60
2023-12-15T21:42:23.046Z,34.00
2023-12-15T21:44:31.035Z,26.20
2023-12-15T21:46:41.704Z,61.40
2023-12-15T21:48:49.879Z,65.10
2023-12-15T21:50:58.171Z,62.40
2023-12-15T21:53:06.386Z,46.20
2023-12-15T21:55:14.739Z,32.60
2023-12-15T21:57:22.744Z,27.50
2023-12-15T21:59:30.710Z,24.90
2023-12-15T22:01:39.501Z,22.20
2023-12-15T22:03:49.265Z,23.50
2023-12-15T22:05:57.450Z,30.80
2023-12-15T22:08:07.511Z,23.10
2023-12-15T22:10:15.729Z,24.20
2023-12-15T22:12:23.894Z,24.60
2023-12-15T22:14:39.364Z,26.10
2023-12-15T22:16:50.388Z,21.50
2023-12-15T22:18:58.516Z,34.50
2023-12-15T22:21:07.059Z,39.60
2023-12-15T22:23:15.044Z,28.70
2023-12-15T22:25:23.261Z,33.10
2023-12-15T22:27:31.310Z,37.90
2023-12-15T22:29:40.565Z,29.60
2023-12-15T22:31:48.942Z,30.90
2023-12-15T22:33:57.117Z,31.10
2023-12-15T22:36:05.521Z,36.00
2023-12-15T22:38:13.568Z,29.40
2023-12-15T22:40:22.345Z,33.60
2023-12-15T22:42:30.826Z,36.40
2023-12-15T22:44:39.989Z,35.40
2023-12-15T22:46:48.087Z,37.80
2023-12-15T22:48:56.216Z,28.90
2023-12-15T22:51:06.745Z,28.10
2023-12-15T22:53:15.313Z,31.00
2023-12-15T22:55:23.368Z,28.80
2023-12-15T22:57:31.397Z,26.60
2023-12-15T22:59:39.404Z,31.50
2023-12-15T23:01:48.771Z,34.20
2023-12-15T23:03:56.981Z,32.10
2023-12-15T23:06:06.430Z,30.00
2023-12-15T23:08:14.531Z,29.30
2023-12-15T23:10:23.070Z,31.00
2023-12-15T23:12:31.145Z,31.00
2023-12-15T23:14:41.376Z,26.20
2023-12-15T23:16:50.025Z,32.20
2023-12-15T23:18:58.333Z,34.80
2023-12-15T23:21:12.647Z,33.30
2023-12-15T23:23:27.341Z,26.80
2023-12-15T23:25:35.368Z,32.20
2023-12-15T23:27:43.637Z,32.50
2023-12-15T23:29:51.907Z,27.00
2023-12-15T23:31:59.911Z,34.50
2023-12-15T23:34:08.355Z,35.10
2023-12-15T23:36:18.169Z,34.30
2023-12-15T23:38:26.165Z,31.00
2023-12-15T23:40:34.204Z,31.80
2023-12-15T23:42:42.419Z,27.70
2023-12-15T23:44:50.834Z,34.70
2023-12-15T23:46:58.849Z,26.70
2023-12-15T23:49:07.021Z,31.20
2023-12-15T23:51:16.706Z,31.50
2023-12-15T23:53:25.207Z,25.60
2023-12-15T23:55:33.185Z,27.60
2023-12-15T23:57:42.103Z,28.10
2023-12-15T23:59:50.609Z,25.50
